createdAt,value
2023-02-14T00:01:52.970Z,31.95
2023-02-14T00:04:21.261Z,30.13
2023-02-14T00:06:49.625Z,29.88
2023-02-14T00:09:19.997Z,19.90
2023-02-14T00:11:48.568Z,36.70
2023-02-14T00:14:36.008Z,26.20
2023-02-14T00:17:04.332Z,29.65
2023-02-14T00:19:34.754Z,27.80
2023-02-14T00:22:04.362Z,27.98
2023-02-14T00:24:32.902Z,21.73
2023-02-14T00:27:02.783Z,28.63
2023-02-14T00:29:33.564Z,27.77
2023-02-14T00:32:03.249Z,27.92
2023-02-14T00:34:33.540Z,32.63
2023-02-14T00:37:01.733Z,30.05
2023-02-14T00:39:31.745Z,25.10
2023-02-14T00:41:59.915Z,26.30
2023-02-14T00:44:27.973Z,22.17
2023-02-14T00:46:56.045Z,33.95
2023-02-14T00:49:24.704Z,19.98
2023-02-14T00:51:52.900Z,34.00
2023-02-14T00:54:20.952Z,24.27
2023-02-14T00:56:48.919Z,28.38
2023-02-14T00:59:17.103Z,26.23
2023-02-14T01:01:45.133Z,29.35
2023-02-14T01:04:13.117Z,26.02
2023-02-14T01:06:41.213Z,33.38
2023-02-14T01:09:09.912Z,24.67
2023-02-14T01:11:39.906Z,24.45
2023-02-14T01:14:08.514Z,27.45
2023-02-14T01:16:38.874Z,30.90
2023-02-14T01:19:09.320Z,24.55
2023-02-14T01:21:37.973Z,29.38
2023-02-14T01:24:08.129Z,22.55
2023-02-14T01:26:37.050Z,25.55
2023-02-14T01:29:05.932Z,24.80
2023-02-14T01:31:38.036Z,23.48
2023-02-14T01:34:06.376Z,27.77
2023-02-14T01:36:39.725Z,25.88
2023-02-14T01:39:15.394Z,26.42
2023-02-14T01:41:48.989Z,30.48
2023-02-14T01:44:17.712Z,27.85
2023-02-14T01:46:47.768Z,25.08
2023-02-14T01:49:43.110Z,19.52
2023-02-14T01:52:29.162Z,27.70
2023-02-14T01:55:05.588Z,21.13
2023-02-14T01:57:52.800Z,26.15
2023-02-14T02:00:41.265Z,23.67
2023-02-14T02:03:11.028Z,26.35
2023-02-14T02:05:45.300Z,23.42
2023-02-14T02:08:14.797Z,25.45
2023-02-14T02:10:43.506Z,27.92
2023-02-14T02:13:20.905Z,20.42
2023-02-14T02:16:19.519Z,33.47
2023-02-14T02:19:34.497Z,28.70
2023-02-14T02:22:22.685Z,23.38
2023-02-14T02:24:57.012Z,28.65
2023-02-14T02:27:59.180Z,19.65
2023-02-14T02:33:51.600Z,21.65
2023-02-14T02:36:32.288Z,19.17
2023-02-14T02:39:09.616Z,24.80
2023-02-14T02:42:21.337Z,21.58
2023-02-14T02:45:26.033Z,23.15
2023-02-14T02:48:05.897Z,26.80
2023-02-14T02:51:11.305Z,22.50
2023-02-14T02:54:00.571Z,24.98
2023-02-14T02:56:46.623Z,23.35
2023-02-14T02:59:37.376Z,19.83
2023-02-14T03:02:57.004Z,19.77
2023-02-14T03:05:28.421Z,29.50
2023-02-14T03:07:56.503Z,20.13
2023-02-14T03:10:37.229Z,20.13
2023-02-14T03:13:37.672Z,28.58
2023-02-14T03:16:26.952Z,26.80
2023-02-14T03:19:35.086Z,24.40
2023-02-14T03:22:47.388Z,23.83
2023-02-14T03:25:27.099Z,25.98
2023-02-14T03:28:19.662Z,34.53
2023-02-14T03:30:59.205Z,32.55
2023-02-14T03:34:03.002Z,20.48
2023-02-14T03:37:00.605Z,26.02
2023-02-14T03:39:43.977Z,23.80
2023-02-14T03:42:28.688Z,29.85
2023-02-14T03:44:58.820Z,28.73
2023-02-14T03:47:32.752Z,31.88
2023-02-14T03:50:19.353Z,30.98
2023-02-14T03:52:52.408Z,27.98
2023-02-14T03:55:47.316Z,25.58
2023-02-14T03:58:30.534Z,21.63
2023-02-14T04:01:09.424Z,28.75
2023-02-14T04:03:41.885Z,27.50
2023-02-14T04:06:12.112Z,26.35
2023-02-14T04:08:40.661Z,29.40
2023-02-14T04:11:08.715Z,30.45
2023-02-14T04:13:39.206Z,24.17
2023-02-14T04:16:08.433Z,25.83
2023-02-14T04:18:55.185Z,27.85
2023-02-14T04:21:23.449Z,27.90
2023-02-14T04:23:51.362Z,34.72
2023-02-14T04:26:19.875Z,24.73
2023-02-14T04:28:49.336Z,33.53
2023-02-14T04:31:18.196Z,24.70
2023-02-14T04:33:48.251Z,34.20
2023-02-14T04:36:16.318Z,29.98
2023-02-14T04:38:44.352Z,20.95
2023-02-14T04:41:13.045Z,24.48
2023-02-14T04:43:43.495Z,30.13
2023-02-14T04:46:11.564Z,27.40
2023-02-14T04:48:39.796Z,23.40
2023-02-14T04:51:08.214Z,26.63
2023-02-14T04:53:40.553Z,23.67
2023-02-14T04:56:09.195Z,24.13
2023-02-14T04:58:37.616Z,24.45
2023-02-14T05:01:05.668Z,21.80
2023-02-14T05:03:33.910Z,24.80
2023-02-14T05:06:01.868Z,26.70
2023-02-14T05:08:30.044Z,29.77
2023-02-14T05:10:59.052Z,26.80
2023-02-14T05:13:27.284Z,27.40
2023-02-14T05:15:55.922Z,30.20
2023-02-14T05:18:24.364Z,22.58
2023-02-14T05:20:54.512Z,26.63
2023-02-14T05:23:23.403Z,27.88
2023-02-14T05:25:52.573Z,30.92
2023-02-14T05:28:20.771Z,31.60
2023-02-14T05:30:50.506Z,35.63
2023-02-14T05:33:19.061Z,37.47
2023-02-14T05:35:47.308Z,41.03
2023-02-14T05:38:15.582Z,38.55
2023-02-14T05:40:44.072Z,44.70
2023-02-14T05:43:12.884Z,27.00
2023-02-14T05:45:41.086Z,31.15
2023-02-14T05:48:09.198Z,31.08
2023-02-14T05:50:37.453Z,27.92
2023-02-14T05:53:05.845Z,34.45
2023-02-14T05:55:34.307Z,30.88
2023-02-14T05:58:03.172Z,30.42
2023-02-14T06:00:32.310Z,34.55
2023-02-14T06:03:01.011Z,35.95
2023-02-14T06:05:29.261Z,32.28
2023-02-14T06:07:57.265Z,35.40
2023-02-14T06:10:26.475Z,36.42
2023-02-14T06:12:54.828Z,38.42
2023-02-14T06:15:23.635Z,34.30
2023-02-14T06:17:56.878Z,42.47
2023-02-14T06:20:25.900Z,44.80
2023-02-14T06:22:54.871Z,42.95
2023-02-14T06:25:25.393Z,35.03
2023-02-14T06:27:57.837Z,44.85
2023-02-14T06:30:26.700Z,32.85
2023-02-14T06:32:55.274Z,40.15
2023-02-14T06:35:23.660Z,63.70
2023-02-14T06:37:52.019Z,42.00
2023-02-14T06:40:20.583Z,36.85
2023-02-14T06:42:48.934Z,37.00
2023-02-14T06:45:17.269Z,34.60
2023-02-14T06:47:46.484Z,38.47
2023-02-14T06:50:15.269Z,32.22
2023-02-14T06:52:44.647Z,45.72
2023-02-14T06:55:13.953Z,38.65
2023-02-14T06:57:42.070Z,42.70
2023-02-14T07:00:11.294Z,39.70
2023-02-14T07:02:39.315Z,37.53
2023-02-14T07:05:07.836Z,38.13
2023-02-14T07:07:36.032Z,39.65
2023-02-14T07:10:04.668Z,36.05
2023-02-14T07:12:32.876Z,46.67
2023-02-14T07:15:01.128Z,35.40
2023-02-14T07:17:29.162Z,44.45
2023-02-14T07:19:57.527Z,46.28
2023-02-14T07:22:26.067Z,43.22
2023-02-14T07:24:54.027Z,43.47
2023-02-14T07:27:22.071Z,42.90
2023-02-14T07:29:51.094Z,54.83
2023-02-14T07:32:19.214Z,48.55
2023-02-14T07:34:48.326Z,52.70
2023-02-14T07:37:18.083Z,37.85
2023-02-14T07:39:46.643Z,39.22
2023-02-14T07:42:15.076Z,31.58
2023-02-14T07:44:46.698Z,32.33
2023-02-14T07:47:14.883Z,31.05
2023-02-14T07:49:43.219Z,55.83
2023-02-14T07:52:11.334Z,38.53
2023-02-14T07:54:39.706Z,31.98
2023-02-14T07:57:07.618Z,34.33
2023-02-14T07:59:35.968Z,34.28
2023-02-14T08:02:04.323Z,41.97
2023-02-14T08:04:33.879Z,35.38
2023-02-14T08:07:02.225Z,43.63
2023-02-14T08:09:30.481Z,31.60
2023-02-14T08:12:18.217Z,41.40
2023-02-14T08:14:46.317Z,55.55
2023-02-14T08:17:14.394Z,36.20
2023-02-14T08:19:42.474Z,37.03
2023-02-14T08:22:10.548Z,34.65
2023-02-14T08:24:38.685Z,27.48
2023-02-14T08:27:06.905Z,38.28
2023-02-14T08:29:35.709Z,32.95
2023-02-14T08:32:03.907Z,30.98
2023-02-14T08:34:32.170Z,36.65
2023-02-14T08:37:00.523Z,32.80
2023-02-14T08:39:29.377Z,34.15
2023-02-14T08:41:57.918Z,32.13
2023-02-14T08:44:26.452Z,33.15
2023-02-14T08:46:54.528Z,38.00
2023-02-14T08:49:23.041Z,26.70
2023-02-14T08:51:51.151Z,37.38
2023-02-14T08:54:19.159Z,34.85
2023-02-14T08:56:47.768Z,44.63
2023-02-14T08:59:16.051Z,36.60
2023-02-14T09:01:44.244Z,37.90
2023-02-14T09:04:13.913Z,36.13
2023-02-14T09:06:42.299Z,32.03
2023-02-14T09:09:10.400Z,34.17
2023-02-14T09:11:39.360Z,32.50
2023-02-14T09:14:07.500Z,33.75
2023-02-14T09:16:36.076Z,37.28
2023-02-14T09:19:06.114Z,33.70
2023-02-14T09:21:35.776Z,30.30
2023-02-14T09:24:04.096Z,32.63
2023-02-14T09:26:33.016Z,39.35
2023-02-14T09:29:00.943Z,40.58
2023-02-14T09:31:29.069Z,46.38
2023-02-14T09:33:57.534Z,31.38
2023-02-14T09:36:44.336Z,40.65
2023-02-14T09:39:12.612Z,35.50
2023-02-14T09:41:55.697Z,38.17
2023-02-14T09:44:42.987Z,37.33
2023-02-14T09:47:39.872Z,38.20
2023-02-14T09:50:26.380Z,34.65
2023-02-14T09:53:03.542Z,36.83
2023-02-14T09:55:44.093Z,35.83
2023-02-14T09:58:23.435Z,34.30
2023-02-14T10:01:29.614Z,37.80
2023-02-14T10:04:25.378Z,23.27
2023-02-14T10:07:22.487Z,37.42
2023-02-14T10:10:18.848Z,36.83
2023-02-14T10:13:34.414Z,30.73
2023-02-14T10:16:26.980Z,28.63
2023-02-14T10:19:06.352Z,44.65
2023-02-14T10:21:42.860Z,26.35
2023-02-14T10:24:37.927Z,33.78
2023-02-14T10:27:39.818Z,37.67
2023-02-14T10:30:18.571Z,35.22
2023-02-14T10:33:15.072Z,35.55
2023-02-14T10:35:58.925Z,46.20
2023-02-14T10:38:49.265Z,37.25
2023-02-14T10:41:28.690Z,37.65
2023-02-14T10:44:14.978Z,36.08
2023-02-14T10:47:10.699Z,36.53
2023-02-14T10:50:10.528Z,29.52
2023-02-14T10:52:59.447Z,31.60
2023-02-14T10:55:49.249Z,29.63
2023-02-14T10:58:22.019Z,31.70
2023-02-14T11:01:02.003Z,27.52
2023-02-14T11:03:33.549Z,32.53
2023-02-14T11:06:01.737Z,28.60
2023-02-14T11:08:36.362Z,27.50
2023-02-14T11:11:26.345Z,35.95
2023-02-14T11:13:55.075Z,36.00
2023-02-14T11:16:35.943Z,36.90
2023-02-14T11:19:40.084Z,32.97
2023-02-14T11:22:10.445Z,34.22
2023-02-14T11:24:42.239Z,35.92
2023-02-14T11:27:13.466Z,41.45
2023-02-14T11:29:41.449Z,53.30
2023-02-14T11:32:14.832Z,35.80
2023-02-14T11:34:53.061Z,42.28
2023-02-14T11:37:25.353Z,40.95
2023-02-14T11:39:56.695Z,44.03
2023-02-14T11:42:46.542Z,41.00
2023-02-14T11:45:38.769Z,45.50
2023-02-14T11:48:39.599Z,39.55
2023-02-14T11:51:16.716Z,42.10
2023-02-14T11:53:52.453Z,44.92
2023-02-14T11:56:23.685Z,40.10
2023-02-14T11:58:58.288Z,43.85
2023-02-14T12:01:35.348Z,48.72
2023-02-14T12:04:14.347Z,47.25
2023-02-14T12:06:44.524Z,41.05
2023-02-14T12:09:22.518Z,38.92
2023-02-14T12:12:03.134Z,43.00
2023-02-14T12:14:36.054Z,39.65
2023-02-14T12:17:34.326Z,38.30
2023-02-14T12:20:14.462Z,38.60
2023-02-14T12:22:54.305Z,42.60
2023-02-14T12:25:43.197Z,46.80
2023-02-14T12:28:19.584Z,45.08
2023-02-14T12:30:49.933Z,44.42
2023-02-14T12:33:23.657Z,44.80
2023-02-14T12:36:20.542Z,60.25
2023-02-14T12:39:22.911Z,45.83
2023-02-14T12:45:00.336Z,39.58
2023-02-14T12:47:45.551Z,43.42
2023-02-14T12:50:51.740Z,47.08
2023-02-14T12:53:25.675Z,38.05
2023-02-14T12:56:37.250Z,44.75
2023-02-14T12:59:34.425Z,45.45
2023-02-14T13:02:43.356Z,45.58
2023-02-14T13:05:20.826Z,39.25
2023-02-14T13:08:24.107Z,48.70
2023-02-14T13:11:39.283Z,45.05
2023-02-14T13:14:58.592Z,42.65
2023-02-14T13:17:57.014Z,38.55
2023-02-14T13:20:50.949Z,42.95
2023-02-14T13:23:42.742Z,47.13
2023-02-14T13:26:20.699Z,41.45
2023-02-14T13:29:45.658Z,51.22
2023-02-14T13:32:20.252Z,45.45
2023-02-14T13:34:50.265Z,65.05
2023-02-14T13:37:23.041Z,56.47
2023-02-14T13:39:58.588Z,53.28
2023-02-14T13:42:49.022Z,53.55
2023-02-14T13:45:53.970Z,42.38
2023-02-14T13:48:26.154Z,46.10
2023-02-14T13:51:03.508Z,55.05
2023-02-14T13:53:45.178Z,54.65
2023-02-14T13:56:13.664Z,50.33
2023-02-14T13:58:55.432Z,60.25
2023-02-14T14:01:34.203Z,50.05
2023-02-14T14:04:28.363Z,61.45
2023-02-14T14:07:05.381Z,49.20
2023-02-14T14:10:02.295Z,48.70
2023-02-14T14:12:30.410Z,46.72
2023-02-14T14:15:08.446Z,54.65
2023-02-14T14:17:40.288Z,57.28
2023-02-14T14:20:18.948Z,47.55
2023-02-14T14:22:53.780Z,62.13
2023-02-14T14:25:41.350Z,47.72
2023-02-14T14:28:22.086Z,50.22
2023-02-14T14:30:50.716Z,60.72
2023-02-14T14:33:32.350Z,53.10
2023-02-14T14:38:54.283Z,70.00
2023-02-14T14:41:32.712Z,61.75
2023-02-14T14:44:01.146Z,69.78
2023-02-14T14:46:29.202Z,72.82
2023-02-14T14:48:58.072Z,52.38
2023-02-14T14:51:34.142Z,50.38
2023-02-14T14:54:16.536Z,58.53
2023-02-14T14:56:57.527Z,56.13
2023-02-14T14:59:35.849Z,57.60
2023-02-14T15:02:20.586Z,56.67
2023-02-14T15:04:48.953Z,67.65
2023-02-14T15:07:34.574Z,47.60
2023-02-14T15:10:31.611Z,58.40
2023-02-14T15:13:18.761Z,57.50
2023-02-14T15:15:52.127Z,54.78
2023-02-14T15:18:21.630Z,61.85
2023-02-14T15:20:52.268Z,57.22
2023-02-14T15:23:24.987Z,50.83
2023-02-14T15:25:54.200Z,67.18
2023-02-14T15:28:37.714Z,52.47
2023-02-14T15:31:08.096Z,47.60
2023-02-14T15:33:37.138Z,58.05
2023-02-14T15:36:16.824Z,53.35
2023-02-14T15:38:45.842Z,57.05
2023-02-14T15:41:16.040Z,41.60
2023-02-14T15:43:44.408Z,59.67
2023-02-14T15:46:20.921Z,49.15
2023-02-14T15:48:49.133Z,56.60
2023-02-14T15:51:24.690Z,45.60
2023-02-14T15:54:03.058Z,50.38
2023-02-14T15:56:37.637Z,59.08
2023-02-14T15:59:18.119Z,51.40
2023-02-14T16:02:18.781Z,55.35
2023-02-14T16:04:47.498Z,67.20
2023-02-14T16:07:30.060Z,85.57
2023-02-14T16:10:27.259Z,71.95
2023-02-14T16:13:16.852Z,67.90
2023-02-14T16:16:08.624Z,64.28
2023-02-14T16:18:53.102Z,53.05
2023-02-14T16:21:31.567Z,53.22
2023-02-14T16:24:12.150Z,52.70
2023-02-14T16:26:45.726Z,51.70
2023-02-14T16:29:17.137Z,54.40
2023-02-14T16:34:50.146Z,58.97
2023-02-14T16:37:33.662Z,51.53
2023-02-14T16:40:03.070Z,52.60
2023-02-14T16:42:33.055Z,55.10
2023-02-14T16:45:01.852Z,63.65
2023-02-14T16:47:30.557Z,68.53
2023-02-14T16:49:59.408Z,60.30
2023-02-14T16:52:30.073Z,60.33
2023-02-14T16:54:58.606Z,63.55
2023-02-14T16:57:33.518Z,68.75
2023-02-14T17:00:01.931Z,57.58
2023-02-14T17:02:30.149Z,64.28
2023-02-14T17:04:58.809Z,65.82
2023-02-14T17:07:30.989Z,67.43
2023-02-14T17:10:08.269Z,49.95
2023-02-14T17:12:41.589Z,60.42
2023-02-14T17:15:17.950Z,61.95
2023-02-14T17:17:49.661Z,52.80
2023-02-14T17:20:20.817Z,62.40
2023-02-14T17:22:49.475Z,63.38
2023-02-14T17:25:18.036Z,61.20
2023-02-14T17:27:46.867Z,79.50
2023-02-14T17:30:16.080Z,66.20
2023-02-14T17:32:45.173Z,59.28
2023-02-14T17:35:14.847Z,65.13
2023-02-14T17:37:43.479Z,78.65
2023-02-14T17:40:13.265Z,65.80
2023-02-14T17:42:42.544Z,64.68
2023-02-14T17:45:12.136Z,77.88
2023-02-14T17:47:43.761Z,62.08
2023-02-14T17:50:13.623Z,67.82
2023-02-14T17:52:42.968Z,89.22
2023-02-14T17:55:11.855Z,75.38
2023-02-14T17:57:41.160Z,75.03
2023-02-14T18:00:11.828Z,77.30
2023-02-14T18:02:43.614Z,72.30
2023-02-14T18:05:13.682Z,78.07
2023-02-14T18:07:42.258Z,82.68
2023-02-14T18:10:12.165Z,66.93
2023-02-14T18:12:41.809Z,66.68
2023-02-14T18:15:10.430Z,68.95
2023-02-14T18:17:39.579Z,65.20
2023-02-14T18:20:09.550Z,64.75
2023-02-14T18:22:38.301Z,63.70
2023-02-14T18:25:08.107Z,60.80
2023-02-14T18:27:37.399Z,81.70
2023-02-14T18:30:07.294Z,77.93
2023-02-14T18:32:35.955Z,63.22
2023-02-14T18:35:04.252Z,73.90
2023-02-14T18:37:32.826Z,77.57
2023-02-14T18:40:03.454Z,61.58
2023-02-14T18:42:32.032Z,80.07
2023-02-14T18:45:00.391Z,67.68
2023-02-14T18:47:28.851Z,83.88
2023-02-14T18:49:58.335Z,58.75
2023-02-14T18:52:27.019Z,68.93
2023-02-14T18:54:59.401Z,96.68
2023-02-14T18:57:28.911Z,69.03
2023-02-14T18:59:57.887Z,66.07
2023-02-14T19:02:26.623Z,113.18
2023-02-14T19:04:55.584Z,80.30
2023-02-14T19:07:25.983Z,73.13
2023-02-14T19:09:54.596Z,78.38
2023-02-14T19:12:26.013Z,71.47
2023-02-14T19:14:55.541Z,71.43
2023-02-14T19:17:23.985Z,79.32
2023-02-14T19:19:53.988Z,75.10
2023-02-14T19:22:22.884Z,73.13
2023-02-14T19:24:54.105Z,70.90
2023-02-14T19:27:22.882Z,81.78
2023-02-14T19:29:51.856Z,77.57
2023-02-14T19:32:20.552Z,68.70
2023-02-14T19:34:49.113Z,88.05
2023-02-14T19:37:17.951Z,106.47
2023-02-14T19:39:46.645Z,91.97
2023-02-14T19:42:15.160Z,76.97
2023-02-14T19:44:43.880Z,84.00
2023-02-14T19:47:26.833Z,51.92
2023-02-14T19:49:59.739Z,65.45
2023-02-14T19:52:28.387Z,74.47
2023-02-14T19:54:57.770Z,75.82
2023-02-14T19:57:26.460Z,72.43
2023-02-14T19:59:55.627Z,78.70
2023-02-14T20:02:27.341Z,70.00
2023-02-14T20:07:27.072Z,69.60
2023-02-14T20:09:55.589Z,64.00
2023-02-14T20:12:24.025Z,61.33
2023-02-14T20:14:54.574Z,72.10
2023-02-14T20:17:23.431Z,59.57
2023-02-14T20:19:53.038Z,68.45
2023-02-14T20:22:23.547Z,61.67
2023-02-14T20:24:52.198Z,67.47
2023-02-14T20:27:22.656Z,58.70
2023-02-14T20:29:52.429Z,69.07
2023-02-14T20:32:21.664Z,57.70
2023-02-14T20:34:52.600Z,53.97
2023-02-14T20:37:21.286Z,66.93
2023-02-14T20:39:49.758Z,64.72
2023-02-14T20:42:20.520Z,59.60
2023-02-14T20:44:50.363Z,53.25
2023-02-14T20:47:19.308Z,50.38
2023-02-14T20:49:48.979Z,61.35
2023-02-14T20:52:18.887Z,62.28
2023-02-14T20:54:47.728Z,64.65
2023-02-14T20:57:16.741Z,65.22
2023-02-14T20:59:45.515Z,57.63
2023-02-14T21:02:13.855Z,65.13
2023-02-14T21:04:42.704Z,60.00
2023-02-14T21:07:12.938Z,60.75
2023-02-14T21:09:41.628Z,55.83
2023-02-14T21:12:10.577Z,64.07
2023-02-14T21:14:39.530Z,57.28
2023-02-14T21:17:09.493Z,56.65
2023-02-14T21:19:37.809Z,60.58
2023-02-14T21:22:06.460Z,58.20
2023-02-14T21:24:34.986Z,65.40
2023-02-14T21:27:03.969Z,63.55
2023-02-14T21:29:32.431Z,61.13
2023-02-14T21:32:03.648Z,64.45
2023-02-14T21:34:33.331Z,69.22
2023-02-14T21:37:02.367Z,68.85
2023-02-14T21:39:31.498Z,78.68
2023-02-14T21:42:01.357Z,73.35
2023-02-14T21:44:48.632Z,62.38
2023-02-14T21:47:17.065Z,63.47
2023-02-14T21:50:04.080Z,67.35
2023-02-14T21:52:32.565Z,66.20
2023-02-14T21:55:00.765Z,62.15
2023-02-14T21:57:31.548Z,67.38
2023-02-14T21:59:59.875Z,68.37
2023-02-14T22:02:28.220Z,71.25
2023-02-14T22:04:56.430Z,63.83
2023-02-14T22:07:27.142Z,61.03
2023-02-14T22:09:55.714Z,72.93
2023-02-14T22:12:24.703Z,80.38
2023-02-14T22:14:52.819Z,74.47
2023-02-14T22:17:21.107Z,71.97
2023-02-14T22:19:49.276Z,78.10
2023-02-14T22:22:17.370Z,75.57
2023-02-14T22:24:45.870Z,80.28
2023-02-14T22:27:16.352Z,67.75
2023-02-14T22:29:44.705Z,68.57
2023-02-14T22:32:13.108Z,67.10
2023-02-14T22:34:41.731Z,60.47
2023-02-14T22:37:09.719Z,71.03
2023-02-14T22:39:38.128Z,61.85
2023-02-14T22:42:07.166Z,62.95
2023-02-14T22:44:35.984Z,65.32
2023-02-14T22:47:04.327Z,66.85
2023-02-14T22:49:32.555Z,71.65
2023-02-14T22:52:00.598Z,78.13
2023-02-14T22:54:29.196Z,77.40
2023-02-14T22:56:57.325Z,67.63
2023-02-14T22:59:28.387Z,101.97
2023-02-14T23:01:56.952Z,72.85
2023-02-14T23:04:26.605Z,65.13
2023-02-14T23:06:55.149Z,64.72
2023-02-14T23:09:25.586Z,56.10
2023-02-14T23:11:54.322Z,68.07
2023-02-14T23:14:41.039Z,61.05
2023-02-14T23:17:19.023Z,64.10
2023-02-14T23:20:06.690Z,68.93
2023-02-14T23:22:40.860Z,66.97
2023-02-14T23:25:13.104Z,55.42
2023-02-14T23:27:47.790Z,57.33
2023-02-14T23:30:18.974Z,49.67
2023-02-14T23:32:48.196Z,60.88
2023-02-14T23:35:16.371Z,57.08
2023-02-14T23:37:44.423Z,61.15
2023-02-14T23:40:13.016Z,67.55
2023-02-14T23:42:41.248Z,65.43
2023-02-14T23:45:28.034Z,61.67
2023-02-14T23:47:56.184Z,63.97
2023-02-14T23:50:24.069Z,61.97
2023-02-14T23:52:52.005Z,61.85
2023-02-14T23:55:20.237Z,57.70
2023-02-14T23:57:48.284Z,65.57
